KEGE Airport Information

Runway Information
Runway 07 Length 9000 ft width 150 ft Elevation 6461 ft Threshold N/A Heading 82
Runway 25 Length 9000 ft Width 150 ft Elevation 6547 ft Threshold 1000 ft Heading 262
Runway 08 Length 5013 ft width 60 ft Elevation N/A Threshold N/A Heading 90
Runway 26 Length 5013 ft Width 60 ft Elevation ft Threshold N/A Heading 270
Airport Frequencies
Type ATIS Name ATIS Frequency 135.575 MHZ
Type AWOS Name AWOS 3 Frequency 135.575 MHZ
Type CNTR Name DENVER CNT Frequency 128.65 MHZ
Type CTAF Name CTAF Frequency 119.8 MHZ
Type GCCD Name GND/CLNC D Frequency 121.8 MHZ
Type MISC Name EAGLES NES Frequency 41.75 MHZ
Type RDO Name DENVER RDO Frequency 122.2 MHZ
Type TWR Name TWR Frequency 119.8 MHZ
Airport Navaids
Type VOR-DME Name Snow Frequency 109200 KHZ
Airport Weather Information & NOTAM
ADDS - METARS form results

(0213 UTC 04 December 2022)
Data provider http://aviationweather.gov/metar/data/
 
METAR text: KEGE 040211Z AUTO 00000KT 4SM -SN BR FEW021 BKN034 OVC047 M06/M07 A3038 RMK AO2 P0000 FZRANO
Conditions at: KEGE (EAGLE CO. REGION, CO, US) observed 0211 UTC 04 December 2022
Temperature: -6.0°C (21°F)
Dewpoint: -7.0°C (19°F) [RH = 93%]
Pressure (altimeter): 30.38 inches Hg (1028.9 mb)
Winds: calm
Visibility: 4 miles ( 6 km)
Ceiling: 3400 feet AGL
Clouds: few clouds at 2100 feet AGL
broken clouds at 3400 feet AGL
overcast cloud deck at 4700 feet AGL
Weather: -SN BR  (light snow, mist)

METAR text: KEGE 040156Z AUTO 00000KT 2SM -SN BR SCT036 OVC047 M06/M08 A3038 RMK AO2 SLP184 P0000 T10611078 FZRANO
Conditions at: KEGE (EAGLE CO. REGION, CO, US) observed 0156 UTC 04 December 2022
Temperature: -6.1°C (21°F)
Dewpoint: -7.8°C (18°F) [RH = 88%]
Pressure (altimeter): 30.38 inches Hg (1028.9 mb)
[Sea-level pressure: 1018.4 mb]
Winds: calm
Visibility: 2.00 miles (3.22 km)
Ceiling: 4700 feet AGL
Clouds: scattered clouds at 3600 feet AGL
overcast cloud deck at 4700 feet AGL
Weather: -SN BR  (light snow, mist)

METAR text: KEGE 040148Z AUTO 00000KT 1 3/4SM -SN BR BKN036 OVC047 M06/M08 A3038 RMK AO2 P0000 FZRANO
Conditions at: KEGE (EAGLE CO. REGION, CO, US) observed 0148 UTC 04 December 2022
Temperature: -6.0°C (21°F)
Dewpoint: -8.0°C (18°F) [RH = 86%]
Pressure (altimeter): 30.38 inches Hg (1028.9 mb)
Winds: calm
Visibility: 1.75 miles (2.82 km)
Ceiling: 3600 feet AGL
Clouds: broken clouds at 3600 feet AGL
overcast cloud deck at 4700 feet AGL
Weather: -SN BR  (light snow, mist)

Forecast for: KEGE (EAGLE CO. REGION, CO, US)
Text: KEGE 040005Z 0400/0424 00000KT 1SM -SN BR BKN018 OVC028
Forecast period: 0000 to 0400 UTC 04 December 2022
Forecast type: FROM: standard forecast or significant change
Winds: calm
Visibility: 1.00 miles (1.61 km)
Ceiling: 1800 feet AGL
Clouds: broken clouds at 1800 feet AGL
overcast cloud deck at 2800 feet AGL
Weather: -SN BR  (light snow, mist)
Text: TEMPO 0400/0404 3SM -SN BR BKN025 OVC035
Forecast period: 0000 to 0400 UTC 04 December 2022
Forecast type: TEMPORARY: The following changes expected for less than half the time period
Visibility: 3 miles (5 km)
Ceiling: 2500 feet AGL
Clouds: broken clouds at 2500 feet AGL
overcast cloud deck at 3500 feet AGL
Weather: -SN BR  (light snow, mist)
Text: FM040400 VRB03KT 4SM -SN BR OVC030
Forecast period: 0400 to 0600 UTC 04 December 2022
Forecast type: FROM: standard forecast or significant change
Winds: variable direction winds at 3 MPH (3 knots; 1.5 m/s)
Visibility: 4 miles (6 km)
Ceiling: 3000 feet AGL
Clouds: overcast cloud deck at 3000 feet AGL
Weather: -SN BR  (light snow, mist)
Text: FM040600 00000KT P6SM BKN045
Forecast period: 0600 to 1000 UTC 04 December 2022
Forecast type: FROM: standard forecast or significant change
Winds: calm
Visibility: 6 or more miles (10+ km)
Ceiling: 4500 feet AGL
Clouds: broken clouds at 4500 feet AGL
Weather: no significant weather forecast for this period
Text: FM041000 00000KT P6SM OVC100
Forecast period: 1000 UTC 04 December 2022 to 0000 UTC 05 December 2022
Forecast type: FROM: standard forecast or significant change
Winds: calm
Visibility: 6 or more miles (10+ km)
Ceiling: 10000 feet AGL
Clouds: overcast cloud deck at 10000 feet AGL
Weather: no significant weather forecast for this period